KGTF

Great Falls International Airport

Great Falls, Montana, USA
METAR KGTF 170153Z 20011KT 10SM BKN060 M02/M06 A3000 RMK AO2 SLP204 T10221061
Observed Flight Rules
Dec-17 @ 01:53 UTC (39 minutes ago) Visual Flight Rules
Wind Visibility Clouds
200° at 11 knots 10 miles
  • Broken at 6,000' AGL
Temperatures Readings
Current -2°C / 28°F
Dewpoint -6°C / 21°F
Humidity 74%
Altimeter 30" Hg
Pressure 1020.4 hPa
Elevation 1119
METAR KGTF 170153Z 20011KT 10SM BKN060 M02/M06 A3000 RMK AO2 SLP204 T10221061
Observed Flight Rules
Dec-17 @ 01:53 UTC
(39 minutes ago)
VFR
Wind Visibility
200° at 11 knots 10 miles
Clouds
  • Broken at 6,000' AGL
Temperature Dewpoint
-2°C / 28°F -6°C / 21°F
Humidity Altimeter Pressure
74% 30" Hg 1020.4 hPa